createdAt,value
2018-09-24T05:59:33.271Z,7.60
2018-09-24T06:02:07.016Z,7.60
2018-09-24T06:04:40.724Z,7.60
2018-09-24T06:07:14.352Z,7.60
2018-09-24T06:09:47.951Z,7.70
2018-09-24T06:12:21.632Z,7.80
2018-09-24T06:14:55.227Z,7.80
2018-09-24T06:17:28.893Z,7.90
2018-09-24T06:20:02.565Z,7.90
2018-09-24T06:22:36.183Z,7.90
2018-09-24T06:25:09.752Z,8.00
2018-09-24T06:27:43.408Z,8.10
2018-09-24T06:30:17.080Z,8.20
2018-09-24T06:32:50.760Z,8.30
2018-09-24T06:35:24.421Z,8.40
2018-09-24T06:37:58.173Z,8.40
2018-09-24T06:40:31.813Z,8.40
2018-09-24T06:43:05.572Z,8.50
2018-09-24T06:45:39.100Z,8.60
2018-09-24T06:48:12.807Z,8.70
2018-09-24T06:50:46.484Z,8.80
2018-09-24T06:53:20.146Z,8.90
2018-09-24T06:55:53.864Z,9.00
2018-09-24T06:58:27.432Z,9.10
2018-09-24T07:01:01.000Z,9.10
2018-09-24T07:03:34.716Z,9.10
2018-09-24T07:06:08.459Z,9.10
2018-09-24T07:08:41.921Z,9.20
2018-09-24T07:11:15.618Z,9.30
2018-09-24T07:13:49.240Z,9.30
2018-09-24T07:16:22.829Z,9.40
2018-09-24T07:18:56.502Z,9.40
2018-09-24T07:21:30.250Z,9.40
2018-09-24T07:24:03.808Z,9.40
2018-09-24T07:26:37.385Z,9.60
2018-09-24T07:29:11.063Z,9.60
2018-09-24T07:31:44.868Z,9.60
2018-09-24T07:34:18.557Z,9.80
2018-09-24T07:36:52.128Z,9.80
2018-09-24T07:39:25.761Z,9.80
2018-09-24T07:41:59.357Z,9.80
2018-09-24T07:44:33.015Z,9.80
2018-09-24T07:47:06.694Z,9.90
2018-09-24T07:49:40.308Z,9.90
2018-09-24T07:52:13.949Z,10.10
2018-09-24T07:54:47.520Z,10.30
2018-09-24T07:57:21.132Z,10.30
2018-09-24T07:59:54.880Z,10.30
2018-09-24T08:02:28.487Z,10.40
2018-09-24T08:05:02.215Z,10.40
2018-09-24T08:07:36.008Z,10.40
2018-09-24T08:10:09.571Z,10.50
2018-09-24T08:12:43.108Z,10.70
2018-09-24T08:15:16.756Z,10.80
2018-09-24T08:17:50.449Z,10.90
2018-09-24T08:20:24.021Z,10.90
2018-09-24T08:22:57.638Z,10.80
2018-09-24T08:25:31.280Z,10.80
2018-09-24T08:28:04.901Z,10.80
2018-09-24T08:30:38.537Z,11.00
2018-09-24T08:33:12.396Z,11.20
2018-09-24T08:35:46.020Z,11.30
2018-09-24T08:38:19.824Z,11.30
2018-09-24T08:40:53.390Z,11.30
2018-09-24T08:43:27.138Z,11.40
2018-09-24T08:46:00.868Z,11.60
2018-09-24T08:48:34.575Z,11.70
2018-09-24T08:51:08.209Z,11.80
2018-09-24T08:53:41.836Z,11.80
2018-09-24T08:56:15.441Z,11.80
2018-09-24T08:58:49.164Z,11.90
2018-09-24T09:01:22.872Z,12.00
2018-09-24T09:03:56.582Z,12.30
2018-09-24T09:06:30.208Z,12.30
2018-09-24T09:09:03.941Z,12.50
2018-09-24T09:11:37.654Z,12.60
2018-09-24T09:14:11.501Z,12.70
2018-09-24T09:16:45.205Z,12.80
2018-09-24T09:19:18.807Z,12.70
2018-09-24T09:21:52.412Z,12.70
2018-09-24T09:24:26.167Z,12.60
2018-09-24T09:26:59.772Z,12.60
2018-09-24T09:29:33.632Z,12.70
2018-09-24T09:32:07.208Z,12.90
2018-09-24T09:34:40.781Z,12.80
2018-09-24T09:37:14.392Z,12.70
2018-09-24T09:39:48.044Z,13.00
2018-09-24T09:42:21.673Z,13.10
2018-09-24T09:44:55.275Z,13.30
2018-09-24T09:47:28.861Z,13.10
2018-09-24T09:50:02.572Z,13.00
2018-09-24T09:52:36.191Z,13.10
2018-09-24T09:55:09.839Z,13.20
2018-09-24T09:57:43.452Z,13.60
2018-09-24T10:00:17.184Z,13.70
2018-09-24T10:02:50.784Z,13.20
2018-09-24T10:05:24.460Z,13.20
2018-09-24T10:07:58.043Z,13.10
2018-09-24T10:10:31.867Z,13.10
2018-09-24T10:13:05.518Z,13.00
2018-09-24T10:15:39.152Z,12.70
2018-09-24T10:18:12.804Z,12.90
2018-09-24T10:20:46.398Z,12.80
2018-09-24T10:23:19.990Z,12.70
2018-09-24T10:25:53.555Z,12.90
2018-09-24T10:28:27.163Z,13.20
2018-09-24T10:31:00.700Z,13.70
2018-09-24T10:33:34.405Z,13.90
2018-09-24T10:36:08.016Z,13.80
2018-09-24T10:38:41.647Z,13.60
2018-09-24T10:41:15.267Z,13.50
2018-09-24T10:43:48.876Z,13.70
2018-09-24T10:46:22.519Z,13.80
2018-09-24T10:48:56.079Z,13.70
2018-09-24T10:51:29.771Z,13.90
2018-09-24T10:54:03.349Z,13.80
2018-09-24T10:56:36.970Z,13.70
2018-09-24T10:59:10.632Z,13.60
2018-09-24T11:01:44.262Z,13.40
2018-09-24T11:04:17.964Z,13.30
2018-09-24T11:06:51.765Z,13.30
2018-09-24T11:09:25.185Z,13.10
2018-09-24T11:11:58.980Z,12.90
2018-09-24T11:14:32.604Z,12.90
2018-09-24T11:17:06.582Z,13.00
2018-09-24T11:19:39.901Z,13.20
2018-09-24T11:22:13.515Z,13.30
2018-09-24T11:24:47.123Z,13.40
2018-09-24T11:27:20.808Z,13.70
2018-09-24T11:29:54.380Z,13.90
2018-09-24T11:32:28.071Z,13.80
2018-09-24T11:35:01.690Z,14.20
2018-09-24T11:37:35.372Z,14.60
2018-09-24T11:40:08.933Z,14.90
2018-09-24T11:42:42.571Z,14.90
2018-09-24T11:45:16.188Z,14.70
2018-09-24T11:47:49.717Z,14.60
2018-09-24T11:50:23.296Z,14.60
2018-09-24T11:52:56.767Z,14.30
2018-09-24T11:55:30.389Z,14.00
2018-09-24T11:58:03.957Z,13.60
2018-09-24T12:00:37.567Z,12.70
2018-09-24T12:03:11.299Z,10.80
2018-09-24T12:05:44.810Z,9.40
2018-09-24T12:08:18.408Z,8.40
2018-09-24T12:10:52.007Z,7.90
2018-09-24T12:13:25.868Z,7.90
2018-09-24T12:15:59.495Z,7.90
2018-09-24T12:18:33.148Z,7.90
2018-09-24T12:21:06.729Z,7.90
2018-09-24T12:23:40.412Z,7.70
2018-09-24T12:26:14.104Z,7.60
2018-09-24T12:28:47.749Z,7.40
2018-09-24T12:31:21.569Z,7.30
2018-09-24T12:33:55.177Z,7.30
2018-09-24T12:36:28.790Z,7.20
2018-09-24T12:39:02.432Z,7.20
2018-09-24T12:41:35.996Z,7.10
2018-09-24T12:44:09.760Z,7.10
2018-09-24T12:46:43.428Z,7.10
2018-09-24T12:49:17.175Z,7.10
2018-09-24T12:51:50.816Z,7.10
2018-09-24T12:54:24.519Z,7.30
2018-09-24T12:56:57.996Z,7.30
2018-09-24T12:59:31.775Z,7.50
2018-09-24T13:02:05.410Z,7.60
2018-09-24T13:04:39.060Z,7.80
2018-09-24T13:07:12.712Z,8.00
2018-09-24T13:09:46.464Z,8.20
2018-09-24T13:12:20.076Z,8.50
2018-09-24T13:14:53.747Z,8.70
2018-09-24T13:17:27.374Z,8.70
2018-09-24T13:20:01.036Z,8.60
2018-09-24T13:22:34.672Z,8.60
2018-09-24T13:25:08.412Z,8.80
2018-09-24T13:27:41.990Z,8.90
2018-09-24T13:30:15.812Z,9.00
2018-09-24T13:32:49.466Z,9.00
2018-09-24T13:35:23.118Z,8.90
2018-09-24T13:37:56.672Z,8.90
2018-09-24T13:40:30.460Z,8.80
2018-09-24T13:43:04.217Z,8.60
2018-09-24T13:45:37.987Z,8.40
2018-09-24T13:48:11.673Z,8.40
2018-09-24T13:50:45.444Z,8.60
2018-09-24T13:53:19.072Z,8.80
2018-09-24T13:55:52.732Z,8.90
2018-09-24T13:58:26.341Z,8.90
2018-09-24T14:00:59.940Z,9.00
2018-09-24T14:03:33.524Z,9.20
2018-09-24T14:06:07.252Z,9.50
2018-09-24T14:08:40.860Z,9.60
2018-09-24T14:11:14.544Z,9.80
2018-09-24T14:13:48.204Z,9.90
2018-09-24T14:16:21.772Z,10.10
2018-09-24T14:18:55.352Z,10.20
2018-09-24T14:21:29.035Z,10.30
2018-09-24T14:24:02.687Z,10.40
2018-09-24T14:26:36.343Z,10.50
2018-09-24T14:29:10.019Z,10.60
2018-09-24T14:31:43.759Z,10.70
2018-09-24T14:34:17.384Z,10.80
2018-09-24T14:36:51.092Z,10.80
2018-09-24T14:39:24.749Z,10.70
2018-09-24T14:41:58.572Z,10.70
2018-09-24T14:44:32.327Z,10.70
2018-09-24T14:47:06.009Z,10.80
2018-09-24T14:49:39.584Z,10.80
2018-09-24T14:52:13.440Z,10.70
2018-09-24T14:54:47.100Z,10.70
2018-09-24T14:57:20.629Z,10.50
2018-09-24T14:59:54.280Z,10.60
2018-09-24T15:02:28.038Z,10.80
2018-09-24T15:05:01.833Z,11.00
2018-09-24T15:07:35.644Z,11.30
2018-09-24T15:10:09.319Z,11.60
2018-09-24T15:12:42.974Z,11.80
2018-09-24T15:15:16.688Z,11.80
2018-09-24T15:17:50.340Z,11.90
2018-09-24T15:20:23.940Z,11.80
2018-09-24T15:22:57.629Z,11.60
2018-09-24T15:25:31.232Z,11.30
2018-09-24T15:28:04.940Z,11.10
2018-09-24T15:30:38.718Z,10.90
2018-09-24T15:33:12.355Z,10.60
2018-09-24T15:35:45.928Z,10.50
2018-09-24T15:38:19.668Z,10.30
2018-09-24T15:40:53.280Z,10.20
2018-09-24T15:43:26.900Z,10.00
2018-09-24T15:46:00.485Z,10.00
2018-09-24T15:48:34.273Z,10.00
2018-09-24T15:51:07.889Z,10.00
2018-09-24T15:53:41.749Z,9.90
2018-09-24T15:56:15.287Z,9.80
2018-09-24T15:58:48.946Z,9.80
2018-09-24T16:01:22.400Z,9.70
2018-09-24T16:03:56.026Z,9.60
2018-09-24T16:06:29.703Z,9.60
2018-09-24T16:09:03.391Z,9.60
2018-09-24T16:11:36.996Z,9.50
2018-09-24T16:14:10.560Z,9.50
2018-09-24T16:16:44.247Z,9.50
2018-09-24T16:19:17.864Z,9.50
2018-09-24T16:21:51.489Z,9.50
2018-09-24T16:24:25.272Z,9.50
2018-09-24T16:26:58.924Z,9.50
2018-09-24T16:29:32.575Z,9.40
2018-09-24T16:32:06.327Z,9.40
2018-09-24T16:34:46.819Z,9.30
2018-09-24T16:37:20.436Z,9.30
2018-09-24T16:39:54.152Z,9.20
2018-09-24T16:42:27.804Z,9.20
2018-09-24T16:45:01.364Z,9.20
2018-09-24T16:47:35.028Z,9.20
2018-09-24T16:50:08.668Z,9.20
2018-09-24T16:52:42.201Z,9.10
2018-09-24T16:55:15.884Z,9.10
2018-09-24T16:57:49.487Z,9.10
2018-09-24T17:00:23.092Z,9.10
2018-09-24T17:02:56.776Z,9.10
2018-09-24T17:05:30.527Z,9.00
2018-09-24T17:08:04.253Z,8.90
2018-09-24T17:10:37.712Z,8.90
2018-09-24T17:13:11.537Z,8.80
2018-09-24T17:15:45.220Z,8.70
2018-09-24T17:18:18.964Z,8.60
2018-09-24T17:20:52.704Z,8.60
2018-09-24T17:23:26.447Z,8.50
2018-09-24T17:26:00.244Z,8.40
2018-09-24T17:28:33.885Z,8.40
2018-09-24T17:31:07.681Z,8.30
2018-09-24T17:33:41.315Z,8.30
2018-09-24T17:36:15.166Z,8.20
2018-09-24T17:38:48.732Z,8.20
2018-09-24T17:41:22.397Z,8.20
2018-09-24T17:43:56.091Z,8.10
2018-09-24T17:46:29.800Z,8.10
2018-09-24T17:49:03.373Z,8.10
2018-09-24T17:51:37.037Z,8.20
2018-09-24T17:54:10.687Z,8.30
2018-09-24T17:56:44.351Z,8.40
2018-09-24T17:59:17.925Z,8.60
2018-09-24T18:01:51.592Z,8.60
2018-09-24T18:04:25.252Z,8.50
2018-09-24T18:06:58.915Z,8.30
2018-09-24T18:09:32.546Z,8.10
2018-09-24T18:12:06.136Z,7.90
2018-09-24T18:14:39.776Z,7.70
2018-09-24T18:17:13.584Z,7.50
2018-09-24T18:19:47.412Z,7.40
2018-09-24T18:22:21.047Z,7.30
2018-09-24T18:24:54.699Z,7.20
2018-09-24T18:27:28.363Z,7.20
2018-09-24T18:30:02.089Z,7.10
2018-09-24T18:32:35.767Z,7.20
2018-09-24T18:35:09.416Z,7.10
2018-09-24T18:37:43.248Z,7.10
2018-09-24T18:40:16.894Z,7.10
2018-09-24T18:42:50.488Z,7.00
2018-09-24T18:45:24.076Z,6.90
2018-09-24T18:47:57.845Z,6.90
2018-09-24T18:50:31.520Z,6.80
2018-09-24T18:53:05.276Z,6.70
2018-09-24T18:55:38.904Z,6.70
2018-09-24T18:58:12.671Z,6.70
2018-09-24T19:00:46.340Z,6.70
2018-09-24T19:03:20.196Z,6.60
2018-09-24T19:05:53.852Z,6.70
2018-09-24T19:08:27.537Z,6.70
2018-09-24T19:11:01.156Z,6.70
2018-09-24T19:13:34.694Z,6.70
2018-09-24T19:16:08.331Z,6.70
2018-09-24T19:18:42.024Z,6.70
2018-09-24T19:21:15.722Z,6.70
2018-09-24T19:23:49.521Z,6.70
2018-09-24T19:26:23.340Z,6.60
2018-09-24T19:28:57.047Z,6.60
2018-09-24T19:31:30.886Z,6.60
2018-09-24T19:34:04.579Z,6.60
2018-09-24T19:36:38.270Z,6.60
2018-09-24T19:39:13.542Z,6.60
2018-09-24T19:41:47.721Z,6.60
2018-09-24T19:44:21.359Z,6.50
